createdAt,value
2023-06-19T00:00:10.619Z,28.47
2023-06-19T00:00:40.664Z,28.41
2023-06-19T00:01:10.692Z,28.45
2023-06-19T00:01:40.770Z,28.50
2023-06-19T00:02:10.851Z,28.41
2023-06-19T00:02:40.891Z,28.47
2023-06-19T00:03:10.984Z,28.42
2023-06-19T00:03:41.075Z,28.41
2023-06-19T00:04:11.137Z,28.39
2023-06-19T00:04:41.209Z,28.45
2023-06-19T00:05:11.243Z,28.42
2023-06-19T00:05:41.277Z,28.42
2023-06-19T00:06:11.313Z,28.50
2023-06-19T00:06:41.341Z,28.42
2023-06-19T00:07:11.372Z,28.47
2023-06-19T00:07:41.409Z,28.47
2023-06-19T00:08:11.439Z,28.52
2023-06-19T00:08:41.492Z,28.44
2023-06-19T00:09:11.511Z,28.47
2023-06-19T00:09:41.557Z,28.47
2023-06-19T00:10:11.586Z,28.45
2023-06-19T00:10:41.613Z,28.44
2023-06-19T00:11:11.647Z,28.44
2023-06-19T00:11:41.668Z,28.44
2023-06-19T00:12:11.701Z,28.42
2023-06-19T00:12:41.742Z,28.47
2023-06-19T00:13:11.761Z,28.48
2023-06-19T00:13:41.793Z,28.41
2023-06-19T00:14:11.860Z,28.50
2023-06-19T00:14:41.891Z,28.44
2023-06-19T00:15:11.922Z,28.44
2023-06-19T00:15:41.950Z,28.47
2023-06-19T00:16:12.020Z,28.47
2023-06-19T00:16:42.089Z,28.42
2023-06-19T00:17:12.147Z,28.42
2023-06-19T00:17:42.213Z,28.44
2023-06-19T00:18:12.174Z,28.47
2023-06-19T00:18:42.238Z,28.50
2023-06-19T00:19:12.274Z,28.44
2023-06-19T00:19:42.305Z,28.48
2023-06-19T00:20:12.339Z,28.51
2023-06-19T00:20:42.371Z,28.53
2023-06-19T00:21:12.417Z,28.50
2023-06-19T00:21:42.485Z,28.50
2023-06-19T00:22:12.524Z,28.50
2023-06-19T00:22:42.562Z,28.50
2023-06-19T00:23:12.608Z,28.55
2023-06-19T00:23:42.633Z,28.44
2023-06-19T00:24:12.727Z,28.50
2023-06-19T00:24:42.807Z,28.50
2023-06-19T00:25:12.763Z,28.50
2023-06-19T00:25:42.784Z,28.48
2023-06-19T00:26:12.817Z,28.55
2023-06-19T00:26:42.872Z,28.54
2023-06-19T00:27:12.913Z,28.48
2023-06-19T00:27:42.950Z,28.45
2023-06-19T00:28:12.984Z,28.47
2023-06-19T00:28:43.022Z,28.45
2023-06-19T00:29:13.049Z,28.48
2023-06-19T00:29:43.078Z,28.47
2023-06-19T00:30:13.143Z,28.47
2023-06-19T00:30:43.324Z,28.50
2023-06-19T00:31:13.166Z,28.48
2023-06-19T00:31:43.198Z,28.48
2023-06-19T00:32:13.228Z,28.48
2023-06-19T00:32:43.285Z,28.54
2023-06-19T00:33:13.321Z,28.51
2023-06-19T00:33:43.325Z,28.54
2023-06-19T00:34:52.109Z,28.52
2023-06-19T00:35:22.186Z,28.52
2023-06-19T00:35:52.263Z,28.56
2023-06-19T00:36:22.397Z,28.56
2023-06-19T00:36:52.375Z,28.54
2023-06-19T00:37:22.457Z,28.54
2023-06-19T00:37:52.546Z,28.52
2023-06-19T00:38:22.624Z,28.52
2023-06-19T00:38:52.706Z,28.51
2023-06-19T00:39:22.809Z,28.52
2023-06-19T00:39:52.867Z,28.52
2023-06-19T00:40:23.153Z,28.52
2023-06-19T00:40:53.027Z,28.52
2023-06-19T00:41:23.117Z,28.51
2023-06-19T00:41:53.224Z,28.52
2023-06-19T00:42:23.309Z,28.56
2023-06-19T00:42:53.389Z,28.59
2023-06-19T00:43:23.472Z,28.56
2023-06-19T00:43:53.558Z,28.52
2023-06-19T00:44:23.651Z,28.56
2023-06-19T00:44:53.759Z,28.54
2023-06-19T00:45:23.870Z,28.52
2023-06-19T00:45:54.051Z,28.57
2023-06-19T00:46:24.090Z,28.56
2023-06-19T00:46:54.110Z,28.57
2023-06-19T00:47:24.155Z,28.56
2023-06-19T00:47:54.158Z,28.54
2023-06-19T00:48:24.264Z,28.54
2023-06-19T00:48:54.262Z,28.59
2023-06-19T00:49:54.344Z,28.51
2023-06-19T00:50:24.878Z,28.57
2023-06-19T00:50:54.493Z,28.59
2023-06-19T00:51:24.491Z,28.56
2023-06-19T00:52:24.589Z,28.54
2023-06-19T00:52:54.689Z,28.59
2023-06-19T00:53:24.808Z,28.57
2023-06-19T00:53:54.801Z,28.52
2023-06-19T00:54:24.814Z,28.57
2023-06-19T00:54:54.832Z,28.56
2023-06-19T00:55:54.905Z,28.52
2023-06-19T00:56:24.892Z,28.59
2023-06-19T00:57:25.011Z,28.56
2023-06-19T00:57:55.018Z,28.52
2023-06-19T00:58:55.069Z,28.59
2023-06-19T00:59:25.096Z,28.57
2023-06-19T00:59:55.082Z,28.56
2023-06-19T01:00:25.384Z,28.52
2023-06-19T01:01:07.368Z,28.61
2023-06-19T01:01:25.355Z,28.56
2023-06-19T01:01:55.517Z,28.55
2023-06-19T01:02:25.444Z,28.56
2023-06-19T01:02:55.628Z,28.57
2023-06-19T01:03:25.586Z,28.56
2023-06-19T01:03:55.818Z,28.59
2023-06-19T01:04:25.684Z,28.57
2023-06-19T01:04:55.784Z,28.56
2023-06-19T01:05:25.835Z,28.52
2023-06-19T01:05:55.817Z,28.58
2023-06-19T01:06:25.950Z,28.56
2023-06-19T01:06:55.936Z,28.60
2023-06-19T01:07:26.058Z,28.54
2023-06-19T01:07:56.067Z,28.52
2023-06-19T01:08:26.171Z,28.57
2023-06-19T01:08:56.174Z,28.57
2023-06-19T01:09:26.302Z,28.55
2023-06-19T01:09:56.292Z,28.60
2023-06-19T01:10:26.547Z,28.50
2023-06-19T01:10:56.397Z,28.54
2023-06-19T01:11:27.891Z,28.54
2023-06-19T01:11:56.584Z,28.55
2023-06-19T01:12:26.705Z,28.59
2023-06-19T01:12:56.829Z,28.54
2023-06-19T01:13:26.832Z,28.55
2023-06-19T01:13:56.822Z,28.54
2023-06-19T01:14:26.852Z,28.54
2023-06-19T01:14:56.859Z,28.55
2023-06-19T01:15:26.869Z,28.52
2023-06-19T01:15:56.863Z,28.57
2023-06-19T01:16:27.004Z,28.54
2023-06-19T01:16:57.057Z,28.57
2023-06-19T01:17:27.055Z,28.57
2023-06-19T01:17:57.044Z,28.55
2023-06-19T01:18:27.048Z,28.55
2023-06-19T01:18:57.071Z,28.60
2023-06-19T01:19:27.077Z,28.60
2023-06-19T01:20:27.144Z,28.55
2023-06-19T01:20:57.267Z,28.57
2023-06-19T01:21:27.268Z,28.55
2023-06-19T01:21:57.376Z,28.54
2023-06-19T01:22:27.374Z,28.57
2023-06-19T01:22:57.538Z,28.57
2023-06-19T01:23:27.499Z,28.61
2023-06-19T01:23:57.581Z,28.58
2023-06-19T01:24:27.620Z,28.58
2023-06-19T01:24:57.610Z,28.52
2023-06-19T01:25:27.604Z,28.55
2023-06-19T01:25:57.743Z,28.61
2023-06-19T01:26:27.742Z,28.54
2023-06-19T01:27:27.793Z,28.55
2023-06-19T01:27:57.907Z,28.61
2023-06-19T01:28:27.906Z,28.50
2023-06-19T01:28:57.915Z,28.61
2023-06-19T01:29:27.897Z,28.61
2023-06-19T01:29:58.016Z,28.57
2023-06-19T01:30:28.011Z,28.60
2023-06-19T01:30:58.131Z,28.57
2023-06-19T01:31:28.124Z,28.57
2023-06-19T01:32:28.220Z,28.57
2023-06-19T01:32:58.376Z,28.57
2023-06-19T01:33:28.381Z,28.55
2023-06-19T01:33:58.391Z,28.55
2023-06-19T01:34:28.517Z,28.58
2023-06-19T01:34:58.485Z,28.53
2023-06-19T01:35:28.570Z,28.61
2023-06-19T01:35:58.649Z,28.57
2023-06-19T01:36:28.733Z,28.52
2023-06-19T01:36:58.814Z,28.57
2023-06-19T01:37:28.944Z,28.53
2023-06-19T01:37:59.037Z,28.55
2023-06-19T01:38:29.121Z,28.57
2023-06-19T01:38:59.196Z,28.53
2023-06-19T01:39:29.277Z,28.64
2023-06-19T01:39:59.357Z,28.55
2023-06-19T01:40:29.439Z,28.58
2023-06-19T01:40:59.516Z,28.50
2023-06-19T01:41:29.617Z,28.55
2023-06-19T01:41:59.673Z,28.60
2023-06-19T01:42:29.768Z,28.58
2023-06-19T01:42:59.850Z,28.58
2023-06-19T01:43:29.926Z,28.55
2023-06-19T01:44:00.019Z,28.55
2023-06-19T01:44:30.101Z,28.56
2023-06-19T01:45:00.219Z,28.52
2023-06-19T01:45:30.216Z,28.57
2023-06-19T01:46:30.410Z,28.55
2023-06-19T01:47:00.370Z,28.60
2023-06-19T01:47:30.458Z,28.57
2023-06-19T01:48:00.429Z,28.59
2023-06-19T01:48:30.449Z,28.56
2023-06-19T01:49:00.457Z,28.55
2023-06-19T01:49:30.450Z,28.58
2023-06-19T01:50:00.572Z,28.55
2023-06-19T01:50:30.562Z,28.58
2023-06-19T01:51:00.684Z,28.57
2023-06-19T01:51:30.691Z,28.58
2023-06-19T01:52:00.700Z,28.55
2023-06-19T01:52:30.713Z,28.58
2023-06-19T01:53:00.832Z,28.58
2023-06-19T01:53:30.821Z,28.58
2023-06-19T01:54:00.940Z,28.58
2023-06-19T01:54:31.057Z,28.58
2023-06-19T01:55:01.184Z,28.56
2023-06-19T01:55:31.171Z,28.56
2023-06-19T01:56:01.289Z,28.60
2023-06-19T01:56:31.419Z,28.56
2023-06-19T01:57:01.454Z,28.61
2023-06-19T01:57:31.418Z,28.55
2023-06-19T01:58:01.532Z,28.55
2023-06-19T01:58:31.529Z,28.55
2023-06-19T01:59:01.655Z,28.58
2023-06-19T01:59:31.788Z,28.53
2023-06-19T02:00:01.779Z,28.56
2023-06-19T02:01:01.843Z,28.61
2023-06-19T02:01:31.848Z,28.55
2023-06-19T02:02:01.836Z,28.58
2023-06-19T02:02:32.010Z,28.59
2023-06-19T02:03:01.978Z,28.56
2023-06-19T02:03:32.034Z,28.61
2023-06-19T02:04:02.070Z,28.59
2023-06-19T02:04:31.982Z,28.56
2023-06-19T02:05:01.999Z,28.58
2023-06-19T02:05:32.006Z,28.59
2023-06-19T02:06:02.015Z,28.59
2023-06-19T02:06:31.994Z,28.59
2023-06-19T02:07:02.119Z,28.58
2023-06-19T02:07:32.225Z,28.53
2023-06-19T02:08:02.341Z,28.58
2023-06-19T02:08:32.339Z,28.56
2023-06-19T02:09:32.416Z,28.56
2023-06-19T02:10:02.545Z,28.58
2023-06-19T02:10:32.553Z,28.56
2023-06-19T02:11:02.546Z,28.56
2023-06-19T02:12:02.622Z,28.56
2023-06-19T02:12:32.777Z,28.59
2023-06-19T02:13:02.754Z,28.58
2023-06-19T02:13:32.880Z,28.56
2023-06-19T02:14:03.000Z,28.59
2023-06-19T02:14:33.053Z,28.59
2023-06-19T02:15:03.170Z,28.56
2023-06-19T02:15:33.172Z,28.53
2023-06-19T02:16:03.203Z,28.55
2023-06-19T02:16:33.254Z,28.56
2023-06-19T02:17:03.280Z,28.56
2023-06-19T02:17:33.298Z,28.52
2023-06-19T02:18:03.375Z,28.56
2023-06-19T02:18:33.418Z,28.56
2023-06-19T02:19:03.547Z,28.58
2023-06-19T02:19:33.571Z,28.53
2023-06-19T02:20:03.560Z,28.56
2023-06-19T02:20:33.683Z,28.59
2023-06-19T02:21:03.816Z,28.59
2023-06-19T02:21:33.833Z,28.53
2023-06-19T02:22:03.861Z,28.61
2023-06-19T02:22:33.977Z,28.59
2023-06-19T02:23:03.970Z,28.62
2023-06-19T02:23:34.088Z,28.58
2023-06-19T02:24:04.282Z,28.61
2023-06-19T02:24:34.270Z,28.58
2023-06-19T02:25:04.265Z,28.53
2023-06-19T02:25:34.269Z,28.54
2023-06-19T02:26:04.400Z,28.55
2023-06-19T02:26:34.396Z,28.59
2023-06-19T02:27:04.513Z,28.54
2023-06-19T02:27:34.626Z,28.53
2023-06-19T02:28:04.802Z,28.54
2023-06-19T02:28:34.809Z,28.56
2023-06-19T02:29:04.895Z,28.55
2023-06-19T02:29:35.064Z,28.59
2023-06-19T02:30:05.120Z,28.56
2023-06-19T02:30:35.241Z,28.56
2023-06-19T02:31:05.354Z,28.58
2023-06-19T02:31:35.354Z,28.59
2023-06-19T02:32:05.468Z,28.53
2023-06-19T02:32:35.630Z,28.58
2023-06-19T02:33:05.702Z,28.59
2023-06-19T02:33:35.720Z,28.56
2023-06-19T02:34:05.835Z,28.58
2023-06-19T02:34:35.946Z,28.56
2023-06-19T02:35:06.014Z,28.58
2023-06-19T02:35:36.097Z,28.56
2023-06-19T02:36:06.181Z,28.58
2023-06-19T02:36:36.264Z,28.58
2023-06-19T02:37:06.335Z,28.58
2023-06-19T02:37:36.409Z,28.53
2023-06-19T02:38:06.501Z,28.59
2023-06-19T02:38:36.574Z,28.53
2023-06-19T02:39:06.655Z,28.59
2023-06-19T02:39:36.743Z,28.58
2023-06-19T02:40:06.830Z,28.56
2023-06-19T02:40:36.905Z,28.63
2023-06-19T02:41:06.992Z,28.53
2023-06-19T02:41:37.096Z,28.56
2023-06-19T02:42:07.164Z,28.56
2023-06-19T02:42:37.232Z,28.53
2023-06-19T02:43:07.344Z,28.56
2023-06-19T02:43:37.415Z,28.53
2023-06-19T02:44:07.511Z,28.54
2023-06-19T02:44:37.620Z,28.61
2023-06-19T02:45:07.606Z,28.53
2023-06-19T02:46:07.706Z,28.58
2023-06-19T02:46:37.702Z,28.56
2023-06-19T02:47:07.695Z,28.56
2023-06-19T02:47:37.901Z,28.54
2023-06-19T02:48:07.904Z,28.60
2023-06-19T02:48:37.909Z,28.50
2023-06-19T02:49:07.913Z,28.56
2023-06-19T02:49:37.909Z,28.56
2023-06-19T02:50:37.984Z,28.59
2023-06-19T02:51:08.136Z,28.56
2023-06-19T02:51:39.927Z,28.51
2023-06-19T02:52:08.171Z,28.51
2023-06-19T02:52:38.156Z,28.58
2023-06-19T02:53:08.285Z,28.58
2023-06-19T02:53:38.399Z,28.59
2023-06-19T02:54:08.393Z,28.51
2023-06-19T02:54:38.429Z,28.60
2023-06-19T02:55:08.777Z,28.59
2023-06-19T02:55:38.647Z,28.59
2023-06-19T02:56:08.787Z,28.60
2023-06-19T02:56:38.888Z,28.58
2023-06-19T02:57:08.890Z,28.59
2023-06-19T02:58:08.956Z,28.54
2023-06-19T02:58:39.115Z,28.56
2023-06-19T02:59:09.098Z,28.57
2023-06-19T02:59:39.207Z,28.60
2023-06-19T03:00:09.326Z,28.54
2023-06-19T03:00:39.328Z,28.54
2023-06-19T03:01:09.478Z,28.57
2023-06-19T03:01:39.507Z,28.60
2023-06-19T03:02:09.500Z,28.57
2023-06-19T03:02:39.577Z,28.52
2023-06-19T03:03:09.666Z,28.57
2023-06-19T03:03:39.725Z,28.66
2023-06-19T03:04:09.618Z,28.57
2023-06-19T03:04:39.736Z,28.60
2023-06-19T03:05:09.857Z,28.60
2023-06-19T03:05:39.864Z,28.60
2023-06-19T03:06:09.973Z,28.59
2023-06-19T03:06:39.970Z,28.62
2023-06-19T03:07:40.073Z,28.60
2023-06-19T03:08:10.067Z,28.56
2023-06-19T03:08:40.064Z,28.57
2023-06-19T03:09:10.058Z,28.59
2023-06-19T03:10:10.138Z,28.57
2023-06-19T03:10:40.138Z,28.59
2023-06-19T03:11:40.210Z,28.56
2023-06-19T03:12:10.329Z,28.57
2023-06-19T03:12:40.469Z,28.54
2023-06-19T03:13:10.455Z,28.59
2023-06-19T03:13:40.571Z,28.57
2023-06-19T03:14:10.704Z,28.65
2023-06-19T03:14:40.681Z,28.60
2023-06-19T03:15:10.800Z,28.59
2023-06-19T03:15:40.922Z,28.59
2023-06-19T03:16:10.915Z,28.60
2023-06-19T03:17:11.053Z,28.61
2023-06-19T03:17:41.004Z,28.54
2023-06-19T03:18:41.074Z,28.62
2023-06-19T03:19:11.066Z,28.80
2023-06-19T03:20:11.146Z,28.94
2023-06-19T03:20:41.279Z,29.29
2023-06-19T03:21:11.269Z,29.48
2023-06-19T03:21:41.398Z,29.59
2023-06-19T03:22:11.513Z,29.90
2023-06-19T03:22:41.509Z,29.97
2023-06-19T03:23:11.505Z,30.20
2023-06-19T03:24:11.594Z,30.14
2023-06-19T03:24:41.639Z,30.46
2023-06-19T03:25:11.613Z,30.57
2023-06-19T03:25:41.733Z,30.69
2023-06-19T03:26:11.743Z,30.83
2023-06-19T03:26:41.747Z,30.91
2023-06-19T03:27:11.853Z,30.95
2023-06-19T03:27:41.853Z,31.04
2023-06-19T03:28:11.965Z,31.09
2023-06-19T03:28:42.096Z,31.21
2023-06-19T03:29:12.198Z,31.25
2023-06-19T03:29:42.256Z,31.23
2023-06-19T03:30:12.227Z,31.21
2023-06-19T03:30:42.341Z,31.27
2023-06-19T03:31:12.355Z,31.39
2023-06-19T03:31:42.354Z,31.57
2023-06-19T03:32:12.464Z,31.65
2023-06-19T03:32:42.612Z,31.64
2023-06-19T03:33:12.689Z,31.84
2023-06-19T03:33:42.719Z,31.86
2023-06-19T03:34:12.730Z,31.91
2023-06-19T03:34:42.814Z,31.93
2023-06-19T03:35:12.904Z,32.09
2023-06-19T03:35:43.458Z,31.80
2023-06-19T03:36:13.078Z,31.83
2023-06-19T03:36:43.143Z,31.88
2023-06-19T03:37:13.224Z,31.94
2023-06-19T03:37:43.302Z,32.08
2023-06-19T03:38:13.380Z,32.12
2023-06-19T03:38:43.459Z,32.14
2023-06-19T03:39:13.534Z,32.06
2023-06-19T03:39:43.618Z,32.17
2023-06-19T03:40:13.696Z,32.36
2023-06-19T03:40:43.797Z,32.25
2023-06-19T03:41:13.847Z,32.13
2023-06-19T03:41:43.911Z,32.02
2023-06-19T03:42:13.997Z,32.16
2023-06-19T03:42:44.081Z,32.33
2023-06-19T03:43:14.156Z,32.25
2023-06-19T03:43:44.239Z,32.26
2023-06-19T03:44:14.317Z,32.28
2023-06-19T03:44:44.499Z,32.11
2023-06-19T03:45:14.459Z,32.50
2023-06-19T03:46:14.519Z,32.73
2023-06-19T03:46:44.520Z,33.27
2023-06-19T03:47:14.502Z,33.17
2023-06-19T03:47:44.653Z,33.27
2023-06-19T03:48:14.655Z,33.10
2023-06-19T03:48:44.638Z,33.10
2023-06-19T03:49:44.727Z,33.43
2023-06-19T03:50:21.132Z,33.37
2023-06-19T03:50:44.744Z,33.46
2023-06-19T03:51:14.743Z,33.48
2023-06-19T03:51:44.769Z,33.51
2023-06-19T03:52:14.759Z,33.64
2023-06-19T03:53:14.848Z,33.72
2023-06-19T03:53:44.832Z,33.61
2023-06-19T03:54:14.833Z,33.30
2023-06-19T03:54:44.833Z,33.70
2023-06-19T03:55:14.957Z,33.59
2023-06-19T03:55:44.954Z,33.77
2023-06-19T03:56:14.955Z,33.51
2023-06-19T03:56:45.075Z,33.35
2023-06-19T03:57:15.188Z,33.40
2023-06-19T03:57:45.184Z,33.40
2023-06-19T03:58:15.301Z,33.41
2023-06-19T03:58:45.420Z,33.41
2023-06-19T03:59:15.452Z,33.26
2023-06-19T03:59:45.439Z,33.63
2023-06-19T04:00:15.575Z,33.30
2023-06-19T04:00:45.689Z,33.17
2023-06-19T04:01:15.837Z,33.38
2023-06-19T04:01:45.887Z,33.28
2023-06-19T04:02:15.868Z,33.28
2023-06-19T04:02:46.036Z,33.22
2023-06-19T04:03:16.110Z,33.22
2023-06-19T04:03:46.153Z,33.21
2023-06-19T04:04:16.247Z,33.41
2023-06-19T04:04:46.246Z,33.82
2023-06-19T04:05:16.219Z,33.69
2023-06-19T04:05:46.340Z,33.50
2023-06-19T04:06:16.476Z,33.42
2023-06-19T04:06:46.450Z,33.33
2023-06-19T04:07:46.524Z,33.30
2023-06-19T04:08:16.548Z,33.12
2023-06-19T04:08:46.646Z,33.07
2023-06-19T04:09:16.636Z,33.35
2023-06-19T04:09:46.760Z,33.17
2023-06-19T04:10:16.913Z,33.41
2023-06-19T04:10:46.905Z,33.54
2023-06-19T04:11:17.022Z,33.52
2023-06-19T04:11:47.020Z,33.38
2023-06-19T04:12:17.131Z,33.21
2023-06-19T04:12:47.134Z,33.18
2023-06-19T04:13:47.213Z,33.55
2023-06-19T04:14:17.210Z,34.14
2023-06-19T04:14:47.332Z,33.97
2023-06-19T04:15:17.327Z,33.68
2023-06-19T04:15:49.418Z,33.84
2023-06-19T04:16:17.372Z,34.29
2023-06-19T04:17:17.421Z,34.78
2023-06-19T04:17:47.558Z,35.29
2023-06-19T04:18:17.577Z,35.44
2023-06-19T04:18:47.572Z,35.60
2023-06-19T04:19:47.666Z,35.96
2023-06-19T04:20:17.783Z,35.88
2023-06-19T04:20:47.901Z,35.70
2023-06-19T04:21:17.900Z,35.56
2023-06-19T04:22:18.005Z,36.45
2023-06-19T04:22:48.004Z,36.10
2023-06-19T04:23:48.099Z,35.91
2023-06-19T04:24:18.126Z,35.82
2023-06-19T04:24:48.123Z,36.47
2023-06-19T04:25:18.240Z,36.20
2023-06-19T04:25:48.238Z,36.14
2023-06-19T04:26:18.357Z,36.33
2023-06-19T04:26:48.472Z,36.45
2023-06-19T04:27:18.606Z,36.55
2023-06-19T04:27:48.594Z,36.38
2023-06-19T04:28:18.711Z,36.51
2023-06-19T04:28:48.717Z,36.43
2023-06-19T04:29:18.743Z,36.25
2023-06-19T04:30:18.843Z,35.95
2023-06-19T04:30:48.860Z,36.29
2023-06-19T04:31:18.968Z,36.18
2023-06-19T04:31:48.950Z,36.05
2023-06-19T04:32:49.070Z,36.07
2023-06-19T04:33:19.148Z,36.17
2023-06-19T04:33:49.134Z,35.98
2023-06-19T04:34:19.123Z,36.26
2023-06-19T04:34:49.225Z,36.04
2023-06-19T04:35:19.316Z,36.49
2023-06-19T04:35:49.401Z,36.64
2023-06-19T04:36:19.481Z,37.03
2023-06-19T04:36:49.571Z,37.31
2023-06-19T04:37:19.643Z,37.07
2023-06-19T04:37:49.777Z,37.08
2023-06-19T04:38:19.809Z,36.94
2023-06-19T04:38:51.809Z,36.82
2023-06-19T04:39:20.007Z,36.68
2023-06-19T04:39:50.088Z,36.96
2023-06-19T04:40:20.167Z,37.19
2023-06-19T04:40:50.258Z,37.10
2023-06-19T04:41:20.350Z,36.96
2023-06-19T04:41:50.418Z,37.16
2023-06-19T04:42:20.615Z,36.98
2023-06-19T04:42:50.586Z,37.00
2023-06-19T04:43:20.664Z,36.84
2023-06-19T04:43:50.740Z,36.77
2023-06-19T04:44:20.823Z,36.62
2023-06-19T04:44:50.815Z,36.37
2023-06-19T04:45:20.936Z,36.32
2023-06-19T04:45:51.003Z,36.15
2023-06-19T04:46:21.045Z,36.02
2023-06-19T04:46:51.052Z,36.02
2023-06-19T04:47:21.184Z,36.22
2023-06-19T04:47:53.805Z,36.44
2023-06-19T04:48:21.320Z,36.30
2023-06-19T04:48:51.308Z,36.17
2023-06-19T04:49:24.083Z,36.08
2023-06-19T04:49:51.387Z,36.44
2023-06-19T04:50:21.692Z,36.20
2023-06-19T04:50:51.529Z,36.11
2023-06-19T04:51:21.525Z,36.15
2023-06-19T04:52:21.607Z,36.15
2023-06-19T04:52:52.100Z,36.17
2023-06-19T04:53:21.674Z,36.23
2023-06-19T04:53:51.796Z,36.00
2023-06-19T04:54:21.850Z,36.04
2023-06-19T04:54:51.975Z,36.22
2023-06-19T04:55:21.963Z,36.28
2023-06-19T04:55:52.079Z,36.09
2023-06-19T04:56:22.085Z,36.09
2023-06-19T04:56:52.121Z,36.08
2023-06-19T04:57:22.242Z,36.28
2023-06-19T04:57:52.361Z,36.10
2023-06-19T04:58:22.363Z,36.13
2023-06-19T04:59:22.447Z,36.33
2023-06-19T04:59:52.455Z,36.18
2023-06-19T05:00:52.546Z,36.16
2023-06-19T05:01:22.590Z,35.98
2023-06-19T05:01:52.730Z,35.99
2023-06-19T05:02:22.636Z,36.11
2023-06-19T05:02:52.633Z,35.87
2023-06-19T05:03:22.632Z,36.06
2023-06-19T05:03:52.767Z,35.97
2023-06-19T05:04:22.814Z,35.95
2023-06-19T05:04:52.853Z,35.85
2023-06-19T05:05:24.714Z,36.30
2023-06-19T05:05:53.004Z,36.17
2023-06-19T05:06:22.975Z,36.23
2023-06-19T05:06:53.111Z,36.10
2023-06-19T05:07:23.124Z,36.05
2023-06-19T05:07:53.241Z,36.14
2023-06-19T05:08:23.358Z,36.05
2023-06-19T05:08:53.362Z,36.24
2023-06-19T05:09:53.454Z,36.24
2023-06-19T05:10:23.952Z,36.09
2023-06-19T05:10:53.507Z,36.52
2023-06-19T05:11:23.499Z,36.32
2023-06-19T05:11:53.502Z,36.28
2023-06-19T05:12:23.627Z,36.38
2023-06-19T05:12:53.739Z,36.63
2023-06-19T05:13:23.747Z,36.53
2023-06-19T05:13:53.745Z,36.51
2023-06-19T05:14:53.851Z,36.30
2023-06-19T05:15:23.846Z,36.35
2023-06-19T05:15:54.008Z,36.32
2023-06-19T05:16:23.998Z,36.31
2023-06-19T05:16:54.031Z,36.77
2023-06-19T05:17:24.140Z,36.64
2023-06-19T05:17:54.281Z,36.57
2023-06-19T05:18:24.255Z,36.78
2023-06-19T05:18:54.265Z,37.02
2023-06-19T05:19:24.297Z,37.07
2023-06-19T05:19:54.281Z,36.96
2023-06-19T05:20:54.399Z,36.92
2023-06-19T05:21:24.413Z,37.23
2023-06-19T05:22:24.480Z,36.83
2023-06-19T05:22:54.502Z,36.77
2023-06-19T05:23:24.560Z,36.56
2023-06-19T05:23:54.558Z,36.49
2023-06-19T05:24:24.565Z,36.59
2023-06-19T05:24:54.648Z,36.98
2023-06-19T05:25:24.673Z,36.89
2023-06-19T05:25:54.676Z,36.80
2023-06-19T05:26:24.683Z,36.73
2023-06-19T05:26:54.671Z,36.90
2023-06-19T05:27:24.807Z,36.92
2023-06-19T05:27:54.807Z,37.08
2023-06-19T05:28:24.847Z,36.97
2023-06-19T05:28:54.828Z,37.08
2023-06-19T05:29:54.914Z,37.02
2023-06-19T05:30:25.245Z,36.81
2023-06-19T05:30:55.137Z,36.77
2023-06-19T05:31:25.141Z,36.92
2023-06-19T05:31:55.139Z,37.08
2023-06-19T05:32:25.221Z,37.16
2023-06-19T05:32:55.256Z,37.09
2023-06-19T05:33:25.251Z,37.34
2023-06-19T05:33:55.368Z,37.03
2023-06-19T05:34:25.490Z,37.11
2023-06-19T05:34:55.584Z,37.14
2023-06-19T05:35:25.663Z,37.20
2023-06-19T05:35:55.753Z,36.90
2023-06-19T05:36:25.860Z,36.86
2023-06-19T05:36:55.953Z,36.65
2023-06-19T05:37:26.037Z,36.68
2023-06-19T05:37:56.111Z,36.66
2023-06-19T05:38:26.191Z,36.52
2023-06-19T05:38:56.276Z,36.45
2023-06-19T05:39:26.354Z,36.65
2023-06-19T05:39:56.436Z,36.75
2023-06-19T05:40:26.533Z,36.59
2023-06-19T05:40:56.609Z,36.51
2023-06-19T05:41:26.703Z,36.47
2023-06-19T05:41:56.785Z,36.51
2023-06-19T05:42:26.874Z,36.50
2023-06-19T05:42:56.939Z,36.77
2023-06-19T05:43:27.024Z,36.63
2023-06-19T05:43:57.111Z,36.57
2023-06-19T05:44:27.208Z,36.69
2023-06-19T05:44:57.323Z,36.93
2023-06-19T05:45:27.343Z,36.94
2023-06-19T05:45:57.481Z,37.31
2023-06-19T05:46:27.455Z,37.37
2023-06-19T05:46:57.466Z,37.29
2023-06-19T05:47:27.653Z,37.75
2023-06-19T05:47:57.657Z,38.03
2023-06-19T05:48:27.664Z,37.88
2023-06-19T05:48:57.646Z,37.82
2023-06-19T05:49:27.765Z,37.97
2023-06-19T05:49:57.764Z,37.89
2023-06-19T05:50:27.851Z,38.12
2023-06-19T05:50:57.837Z,37.99
2023-06-19T05:51:57.937Z,37.86
2023-06-19T05:52:28.059Z,37.93
2023-06-19T05:52:58.061Z,37.81
2023-06-19T05:53:28.060Z,37.71
2023-06-19T05:54:28.131Z,37.52
2023-06-19T05:54:58.164Z,37.34
2023-06-19T05:55:28.238Z,37.78
2023-06-19T05:55:58.162Z,37.69
2023-06-19T05:56:28.166Z,37.50
2023-06-19T05:56:58.266Z,37.52
2023-06-19T05:57:28.269Z,37.50
2023-06-19T05:57:58.268Z,37.84
2023-06-19T05:58:28.380Z,37.59
2023-06-19T05:58:58.499Z,37.56
2023-06-19T05:59:28.496Z,37.53
2023-06-19T05:59:58.628Z,37.45
2023-06-19T06:00:28.849Z,37.48
2023-06-19T06:00:58.977Z,37.23
2023-06-19T06:01:28.891Z,37.16
2023-06-19T06:01:58.896Z,37.30
2023-06-19T06:02:29.044Z,37.13
2023-06-19T06:02:59.106Z,36.89
2023-06-19T06:03:29.114Z,37.12
2023-06-19T06:03:59.163Z,36.90
2023-06-19T06:04:29.245Z,36.92
2023-06-19T06:04:59.306Z,36.80
2023-06-19T06:05:29.374Z,36.83
2023-06-19T06:05:59.373Z,36.86
2023-06-19T06:06:29.492Z,37.27
2023-06-19T06:06:59.497Z,37.10
2023-06-19T06:07:59.576Z,36.99
2023-06-19T06:08:29.700Z,37.03
2023-06-19T06:08:59.695Z,36.90
2023-06-19T06:09:29.711Z,37.06
2023-06-19T06:09:59.697Z,36.87
2023-06-19T06:10:29.903Z,36.91
2023-06-19T06:10:59.830Z,37.12
2023-06-19T06:11:29.941Z,37.28
2023-06-19T06:11:59.933Z,37.38
2023-06-19T06:12:30.054Z,37.80
2023-06-19T06:13:00.179Z,37.60
2023-06-19T06:13:30.297Z,37.25
2023-06-19T06:14:00.406Z,37.15
2023-06-19T06:14:30.315Z,36.99
2023-06-19T06:15:30.390Z,37.25
2023-06-19T06:16:00.506Z,37.04
2023-06-19T06:16:30.637Z,36.77
2023-06-19T06:17:00.711Z,36.83
2023-06-19T06:17:30.683Z,36.88
2023-06-19T06:18:00.749Z,36.80
2023-06-19T06:18:30.855Z,36.85
2023-06-19T06:19:00.881Z,36.93
2023-06-19T06:19:33.008Z,36.81
2023-06-19T06:20:01.047Z,36.60
2023-06-19T06:20:31.045Z,36.50
2023-06-19T06:21:01.162Z,36.48
2023-06-19T06:21:31.276Z,36.42
2023-06-19T06:22:01.279Z,36.46
2023-06-19T06:22:31.397Z,36.50
2023-06-19T06:23:01.540Z,36.44
2023-06-19T06:23:31.547Z,36.77
2023-06-19T06:24:01.613Z,36.76
2023-06-19T06:24:31.669Z,36.77
2023-06-19T06:25:01.689Z,36.64
2023-06-19T06:25:31.668Z,36.49
2023-06-19T06:26:31.747Z,36.45
2023-06-19T06:27:01.759Z,36.35
2023-06-19T06:27:31.865Z,36.40
2023-06-19T06:28:01.868Z,36.38
2023-06-19T06:28:31.893Z,36.27
2023-06-19T06:29:31.940Z,36.21
2023-06-19T06:30:01.933Z,36.02
2023-06-19T06:30:32.062Z,35.96
2023-06-19T06:31:02.177Z,35.85
2023-06-19T06:31:32.314Z,35.81
2023-06-19T06:32:02.289Z,35.68
2023-06-19T06:32:32.493Z,35.62
2023-06-19T06:33:02.566Z,35.46
2023-06-19T06:33:32.634Z,35.40
2023-06-19T06:34:02.617Z,35.28
2023-06-19T06:34:35.513Z,35.29
2023-06-19T06:35:41.523Z,35.18
2023-06-19T06:36:13.792Z,35.13
2023-06-19T06:36:49.502Z,35.09
2023-06-19T06:37:11.827Z,35.02
2023-06-19T06:37:41.924Z,35.01
2023-06-19T06:38:11.997Z,34.90
2023-06-19T06:38:42.113Z,34.82
2023-06-19T06:39:12.212Z,34.86
2023-06-19T06:39:42.287Z,34.75
2023-06-19T06:40:12.588Z,34.63
2023-06-19T06:40:42.466Z,34.59
2023-06-19T06:41:12.507Z,34.54
2023-06-19T06:41:42.593Z,34.48
2023-06-19T06:42:12.711Z,34.46
2023-06-19T06:42:42.788Z,34.46
2023-06-19T06:43:12.890Z,34.62
2023-06-19T06:43:42.966Z,34.47
2023-06-19T06:44:13.050Z,34.48
2023-06-19T06:44:43.139Z,34.46
2023-06-19T06:45:13.223Z,34.32
2023-06-19T06:45:43.603Z,34.28
2023-06-19T06:46:13.355Z,34.17
2023-06-19T06:46:43.388Z,34.22
2023-06-19T06:47:13.370Z,34.43
2023-06-19T06:47:43.516Z,34.19
2023-06-19T06:48:13.614Z,34.17
2023-06-19T06:48:43.637Z,34.21
2023-06-19T06:49:13.639Z,34.23
2023-06-19T06:50:13.707Z,34.30
2023-06-19T06:50:43.842Z,34.24
2023-06-19T06:51:13.822Z,34.23
2023-06-19T06:52:13.914Z,34.17
2023-06-19T06:52:44.039Z,34.13